Time;durP1;ratioP1;P1;durP2;ratioP2;P2;SDS_P1;SDS_P2;PMS_P1;PMS_P2;Temp;Humidity;BMP_temperature;BMP_pressure;BME280_temperature;BME280_humidity;BME280_pressure;Samples;Min_cycle;Max_cycle;Signal;HPM_P1;HPM_P2
2021/06/19 00:01:00;;;;;;;9.82;8.65;;;;;;;16.67;74.64;96358.81;5093777;28;20389;-83
2021/06/19 00:03:25;;;;;;;11.82;9.00;;;;;;;16.65;74.81;96346.84;5094716;28;20404;-83
2021/06/19 00:05:51;;;;;;;12.68;9.18;;;;;;;16.37;75.72;96325.66;5092501;28;20316;-82
2021/06/19 00:08:17;;;;;;;13.63;8.57;;;;;;;16.22;76.02;96311.44;5093655;28;20028;-82
2021/06/19 00:10:42;;;;;;;10.75;8.95;;;;;;;16.14;76.44;96313.91;5093643;28;20115;-82
2021/06/19 00:13:08;;;;;;;13.30;8.27;;;;;;;16.18;76.28;96327.34;5092494;28;20032;-82
2021/06/19 00:15:35;;;;;;;11.18;8.40;;;;;;;16.48;76.35;96377.00;5093204;28;20084;-82
2021/06/19 00:18:01;;;;;;;15.35;9.27;;;;;;;16.41;77.70;96367.28;5092723;28;20414;-82
2021/06/19 00:20:27;;;;;;;10.80;8.57;;;;;;;16.00;77.23;96303.19;5093391;28;20080;-82
2021/06/19 00:22:54;;;;;;;11.82;8.98;;;;;;;16.46;76.91;96371.25;5092969;28;20035;-81
2021/06/19 00:25:22;;;;;;;11.52;8.45;;;;;;;16.09;76.46;96333.84;5093459;28;20407;-82
2021/06/19 00:27:48;;;;;;;11.38;8.48;;;;;;;16.35;77.51;96382.19;5093089;28;20140;-82
2021/06/19 00:30:16;;;;;;;10.93;8.80;;;;;;;16.02;77.53;96331.56;5092344;28;20369;-81
2021/06/19 00:32:42;;;;;;;11.73;9.13;;;;;;;16.14;77.38;96348.75;5092797;28;20145;-82
2021/06/19 00:35:08;;;;;;;10.60;8.65;;;;;;;16.03;77.08;96337.78;5093291;28;20114;-82
2021/06/19 00:37:35;;;;;;;12.75;9.00;;;;;;;16.29;77.23;96365.00;5093166;28;20063;-82
2021/06/19 00:40:07;;;;;;;12.02;8.48;;;;;;;16.33;77.86;96370.97;5091474;28;20024;-82
2021/06/19 00:42:32;;;;;;;11.50;8.68;;;;;;;16.11;77.28;96349.75;5093202;28;20036;-82
2021/06/19 00:44:58;;;;;;;14.18;8.60;;;;;;;16.04;76.45;96334.56;5094151;28;20095;-82
2021/06/19 00:47:25;;;;;;;13.73;8.88;;;;;;;15.94;77.23;96327.81;5091410;28;20028;-81
2021/06/19 00:49:51;;;;;;;9.80;8.40;;;;;;;15.81;77.81;96305.59;5094044;28;20051;-82
2021/06/19 00:52:17;;;;;;;11.65;7.90;;;;;;;15.76;77.42;96320.78;5092939;28;20024;-82
2021/06/19 00:54:43;;;;;;;15.00;8.90;;;;;;;15.58;78.00;96286.34;5092940;28;20069;-82
2021/06/19 00:57:09;;;;;;;9.52;8.57;;;;;;;15.80;77.67;96318.56;5092443;28;20035;-81
2021/06/19 00:59:38;;;;;;;8.52;7.72;;;;;;;16.15;76.56;96347.53;5093895;28;20055;-82
2021/06/19 01:02:04;;;;;;;13.38;8.57;;;;;;;16.06;75.71;96321.13;5093909;28;20324;-82
2021/06/19 01:04:30;;;;;;;19.67;9.07;;;;;;;16.19;75.52;96343.31;5092704;28;20027;-81
2021/06/19 01:06:58;;;;;;;11.15;8.23;;;;;;;16.13;75.29;96326.09;5092562;28;20020;-81
2021/06/19 01:09:24;;;;;;;10.25;8.38;;;;;;;16.39;75.03;96386.19;5092790;28;20375;-81
2021/06/19 01:11:51;;;;;;;9.77;8.68;;;;;;;16.47;74.95;96384.47;5092690;28;20045;-81
2021/06/19 01:14:17;;;;;;;11.15;8.18;;;;;;;16.07;75.97;96343.78;5091015;28;20089;-81
2021/06/19 01:16:47;;;;;;;8.68;7.78;;;;;;;16.16;76.28;96387.38;5093698;28;20027;-82
2021/06/19 01:19:13;;;;;;;18.83;8.02;;;;;;;15.66;76.56;96314.03;5093715;28;20020;-82
2021/06/19 01:21:38;;;;;;;10.20;7.97;;;;;;;15.78;77.13;96342.19;5090816;28;20032;-81
2021/06/19 01:24:04;;;;;;;9.52;8.52;;;;;;;15.61;77.50;96331.16;5093671;28;20439;-82
2021/06/19 01:26:31;;;;;;;9.63;8.45;;;;;;;15.84;77.91;96364.88;5092616;28;20107;-82
2021/06/19 01:28:59;;;;;;;49.10;11.45;;;;;;;15.57;78.78;96342.34;5093688;28;20048;-82
2021/06/19 01:31:26;;;;;;;9.40;8.27;;;;;;;15.85;78.31;96361.63;5095104;28;20035;-82
2021/06/19 01:33:52;;;;;;;10.10;8.38;;;;;;;15.90;78.47;96368.38;5096630;28;20020;-82
2021/06/19 01:36:20;;;;;;;9.52;8.57;;;;;;;15.54;78.16;96324.16;5096639;28;20051;-82
2021/06/19 01:38:49;;;;;;;10.55;9.45;;;;;;;15.75;77.77;96367.81;5094992;28;20102;-82
2021/06/19 01:41:16;;;;;;;9.65;8.75;;;;;;;15.50;79.26;96322.88;5097540;28;20176;-82
2021/06/19 01:43:43;;;;;;;10.48;8.98;;;;;;;15.23;78.49;96300.38;5096476;28;20408;-82
2021/06/19 01:46:10;;;;;;;10.38;8.55;;;;;;;15.32;78.66;96308.38;5096051;28;20061;-82
2021/06/19 01:48:35;;;;;;;10.77;8.93;;;;;;;15.47;79.33;96343.78;5096527;28;20028;-82
2021/06/19 01:51:01;;;;;;;10.60;9.05;;;;;;;15.67;78.99;96364.81;5097446;28;20389;-82
2021/06/19 01:53:27;;;;;;;9.18;8.27;;;;;;;15.20;79.27;96309.56;5096612;28;20061;-82
2021/06/19 01:55:52;;;;;;;13.90;9.40;;;;;;;15.17;79.55;96314.00;5094717;28;20024;-81
2021/06/19 01:58:19;;;;;;;10.32;9.10;;;;;;;15.50;78.83;96366.66;5097272;28;20066;-82
2021/06/19 02:00:45;;;;;;;12.90;9.25;;;;;;;15.25;80.12;96343.66;5096033;28;20143;-82
2021/06/19 02:03:10;;;;;;;10.05;9.00;;;;;;;15.31;79.68;96358.13;5096988;28;20105;-82
2021/06/19 02:05:36;;;;;;;10.80;8.98;;;;;;;15.03;80.38;96298.53;5094534;28;20024;-82
2021/06/19 02:08:05;;;;;;;11.20;8.98;;;;;;;14.98;79.89;96318.38;5097081;28;20024;-82
2021/06/19 02:10:34;;;;;;;9.55;8.57;;;;;;;15.21;80.18;96338.41;5096003;28;20043;-83
2021/06/19 02:13:01;;;;;;;10.57;8.95;;;;;;;15.16;79.94;96330.91;5094254;28;20111;-81
2021/06/19 02:15:27;;;;;;;10.02;8.93;;;;;;;15.02;80.39;96320.88;5095911;28;20110;-82
2021/06/19 02:17:56;;;;;;;20.95;9.75;;;;;;;15.23;80.43;96354.31;5095820;28;20435;-82
2021/06/19 02:20:24;;;;;;;11.27;9.27;;;;;;;15.38;79.45;96382.28;5095664;28;20028;-81
2021/06/19 02:22:49;;;;;;;10.00;8.10;;;;;;;15.04;79.28;96337.56;5095868;28;20081;-82
2021/06/19 02:25:18;;;;;;;14.30;8.88;;;;;;;15.38;79.43;96385.00;5095190;28;20031;-82
2021/06/19 02:27:58;;;;;;;13.80;8.98;;;;;;;15.27;80.10;96377.50;5095236;28;20048;-82
2021/06/19 02:30:26;;;;;;;15.60;8.70;;;;;;;15.33;80.23;96372.06;5095584;28;20046;-82
2021/06/19 02:32:53;;;;;;;10.30;8.75;;;;;;;15.26;79.92;96378.72;5095726;28;20420;-82
2021/06/19 02:35:20;;;;;;;12.80;8.85;;;;;;;15.26;80.28;96376.00;5095513;28;20090;-81
2021/06/19 02:37:46;;;;;;;12.30;8.63;;;;;;;14.96;79.35;96331.78;5095300;28;20316;-81
2021/06/19 02:40:12;;;;;;;10.93;9.07;;;;;;;14.99;80.18;96346.47;5096426;28;20023;-82
2021/06/19 02:42:38;;;;;;;10.38;8.80;;;;;;;14.79;80.65;96311.78;5094643;28;20020;-82
2021/06/19 02:45:12;;;;;;;10.77;9.02;;;;;;;15.17;80.06;96365.22;5094050;28;20051;-82
2021/06/19 02:47:47;;;;;;;11.70;9.25;;;;;;;15.20;80.12;96377.94;5095337;28;20031;-82
2021/06/19 02:50:14;;;;;;;10.70;9.35;;;;;;;14.87;81.13;96332.00;5095085;28;20067;-82
2021/06/19 02:52:43;;;;;;;11.80;9.20;;;;;;;14.82;80.12;96338.16;5093643;28;20042;-83
2021/06/19 02:55:15;;;;;;;11.82;9.48;;;;;;;15.07;81.84;96381.06;5096169;28;20028;-82
2021/06/19 02:57:41;;;;;;;10.38;9.27;;;;;;;14.87;80.81;96357.34;5089157;28;20324;-82
2021/06/19 03:00:09;;;;;;;12.88;9.10;;;;;;;14.77;81.19;96352.53;5094486;28;20024;-81
2021/06/19 03:02:35;;;;;;;13.77;9.25;;;;;;;14.65;81.05;96341.53;5095972;28;20408;-82
2021/06/19 03:05:00;;;;;;;11.10;9.50;;;;;;;14.75;81.55;96341.31;5096029;28;20024;-81
2021/06/19 03:07:26;;;;;;;11.65;9.80;;;;;;;14.66;81.13;96334.06;5094734;28;20035;-81
2021/06/19 03:09:53;;;;;;;12.38;9.45;;;;;;;14.73;81.69;96363.69;5094163;28;20024;-81
2021/06/19 03:12:19;;;;;;;12.10;9.63;;;;;;;14.67;81.14;96349.22;5095940;28;20024;-81
2021/06/19 03:14:44;;;;;;;12.65;9.13;;;;;;;14.72;81.31;96334.84;5094716;28;20432;-81
2021/06/19 03:17:10;;;;;;;10.13;8.43;;;;;;;14.90;80.33;96342.69;5094549;28;20035;-80
2021/06/19 03:19:36;;;;;;;12.13;9.20;;;;;;;15.00;80.29;96362.41;5094599;28;20107;-81
2021/06/19 03:22:02;;;;;;;10.93;8.75;;;;;;;15.17;80.83;96398.06;5095627;28;20031;-81
2021/06/19 03:24:28;;;;;;;11.77;9.45;;;;;;;14.76;80.39;96332.66;5094564;28;20103;-81
2021/06/19 03:26:54;;;;;;;12.25;9.23;;;;;;;14.75;80.27;96325.66;5093195;28;20380;-81
2021/06/19 03:29:21;;;;;;;11.63;8.57;;;;;;;15.01;79.95;96346.72;5095380;28;20317;-81
2021/06/19 03:31:47;;;;;;;14.20;8.90;;;;;;;15.27;78.99;96374.00;5094386;28;20377;-81
2021/06/19 03:34:12;;;;;;;10.57;8.50;;;;;;;14.92;79.85;96334.75;5093855;28;20028;-80
2021/06/19 03:36:38;;;;;;;12.48;8.48;;;;;;;15.20;79.91;96361.53;5093261;28;20031;-81
2021/06/19 03:39:04;;;;;;;9.63;8.73;;;;;;;15.27;80.44;96366.53;5094151;28;20028;-81
2021/06/19 03:41:30;;;;;;;10.88;8.93;;;;;;;15.54;79.19;96391.81;5094121;28;20031;-82
2021/06/19 03:43:56;;;;;;;14.95;9.38;;;;;;;15.32;78.88;96357.63;5092496;28;20028;-81
2021/06/19 03:46:21;;;;;;;13.82;9.30;;;;;;;15.33;79.67;96361.09;5094112;28;20031;-82
2021/06/19 03:48:47;;;;;;;10.07;9.00;;;;;;;15.17;78.29;96338.63;5094112;28;20036;-82
2021/06/19 03:51:13;;;;;;;14.70;8.85;;;;;;;15.69;78.43;96395.16;5095047;28;20412;-82
2021/06/19 03:53:39;;;;;;;10.30;8.55;;;;;;;15.63;79.58;96399.88;5092357;28;20024;-82
2021/06/19 03:56:04;;;;;;;11.43;8.68;;;;;;;15.41;78.72;96367.63;5093988;28;20039;-82
2021/06/19 03:58:30;;;;;;;12.30;8.38;;;;;;;15.44;78.56;96361.16;5095023;28;20028;-82
2021/06/19 04:00:56;;;;;;;9.82;8.80;;;;;;;15.11;78.54;96293.34;5093490;28;20328;-82
2021/06/19 04:03:21;;;;;;;9.48;8.48;;;;;;;15.39;77.65;96316.13;5092572;28;20324;-82
2021/06/19 04:05:48;;;;;;;9.70;8.38;;;;;;;15.39;77.65;96316.13;5094909;28;20138;-82
2021/06/19 04:08:13;;;;;;;11.35;8.30;;;;;;;15.39;77.65;96316.13;5110728;28;20032;-81
2021/06/19 04:10:39;;;;;;;12.18;8.75;;;;;;;15.39;77.65;96316.13;5093552;28;20016;-81
2021/06/19 04:13:05;;;;;;;10.27;8.43;;;;;;;15.39;77.65;96316.13;5094749;28;20036;-82
2021/06/19 04:15:31;;;;;;;11.43;8.80;;;;;;;15.79;77.79;96349.91;5093402;28;20119;-82
2021/06/19 04:17:56;;;;;;;11.23;9.18;;;;;;;15.79;77.79;96349.91;5094626;28;20319;-82
2021/06/19 04:20:22;;;;;;;10.05;9.05;;;;;;;16.03;76.48;96349.47;5091814;28;20024;-81
2021/06/19 04:22:48;;;;;;;11.23;8.55;;;;;;;16.03;76.48;96349.47;5093540;28;20031;-82
2021/06/19 04:25:15;;;;;;;12.02;8.80;;;;;;;16.03;76.48;96349.47;5093528;28;20051;-82
2021/06/19 04:27:48;;;;;;;12.15;8.95;;;;;;;16.51;75.91;96381.47;5092763;28;20055;-81
2021/06/19 04:30:14;;;;;;;13.38;9.43;;;;;;;16.51;75.91;96381.47;5093048;28;20647;-81
2021/06/19 04:32:40;;;;;;;15.15;9.07;;;;;;;16.51;75.91;96381.47;5094072;28;20114;-82
2021/06/19 04:35:08;;;;;;;10.93;9.02;;;;;;;16.69;75.92;96372.78;5094371;28;20051;-82
2021/06/19 04:37:33;;;;;;;11.52;9.63;;;;;;;16.69;75.92;96372.78;5091482;28;20023;-81
2021/06/19 04:40:15;;;;;;;12.52;9.15;;;;;;;16.69;75.92;96372.78;5094306;28;20028;-84
2021/06/19 04:42:43;;;;;;;13.07;10.50;;;;;;;16.22;75.62;96284.78;5092599;28;20031;-82
2021/06/19 04:45:11;;;;;;;14.85;10.60;;;;;;;16.22;75.62;96284.78;5092768;28;20016;-82
2021/06/19 04:47:36;;;;;;;10.65;9.40;;;;;;;16.22;75.62;96284.78;5092961;28;20059;-83
2021/06/19 04:50:05;;;;;;;13.15;8.82;;;;;;;16.22;75.62;96284.78;5092873;28;20066;-83
2021/06/19 04:52:33;;;;;;;11.80;8.60;;;;;;;16.22;75.62;96284.78;5092477;28;20099;-83
2021/06/19 04:54:59;;;;;;;10.20;8.02;;;;;;;16.55;75.00;96310.69;5092858;28;20027;-84
2021/06/19 04:57:25;;;;;;;11.55;8.90;;;;;;;16.55;75.00;96310.69;5092976;28;20028;-84
2021/06/19 04:59:51;;;;;;;10.77;9.10;;;;;;;16.68;74.24;96310.22;5092764;28;20320;-83
2021/06/19 05:02:17;;;;;;;13.93;9.30;;;;;;;16.68;74.24;96310.22;5092368;28;20020;-83
2021/06/19 05:04:43;;;;;;;9.55;8.55;;;;;;;16.68;74.24;96310.22;5091941;28;20039;-82
2021/06/19 05:07:09;;;;;;;11.00;9.20;;;;;;;16.68;74.24;96310.22;5092699;28;20031;-85
2021/06/19 05:09:34;;;;;;;10.77;8.77;;;;;;;16.68;74.24;96310.22;5091340;28;20027;-83
2021/06/19 05:12:00;;;;;;;10.77;9.73;;;;;;;16.68;74.24;96310.22;5092736;28;20030;-84
2021/06/19 05:14:25;;;;;;;11.80;9.80;;;;;;;17.05;73.00;96293.50;5093540;28;20066;-84
2021/06/19 05:16:51;;;;;;;14.90;10.50;;;;;;;17.05;73.00;96293.50;5093754;28;20104;-83
2021/06/19 05:19:18;;;;;;;18.65;11.27;;;;;;;17.05;73.00;96293.50;5091084;28;20119;-84
2021/06/19 05:21:44;;;;;;;15.18;10.38;;;;;;;17.66;72.89;96352.94;5093633;28;20028;-84
2021/06/19 05:24:11;;;;;;;14.40;10.45;;;;;;;17.66;72.89;96352.94;5096515;28;20060;-84
2021/06/19 05:26:37;;;;;;;15.48;11.77;;;;;;;17.36;72.54;96294.41;5090898;28;20027;-82
2021/06/19 05:29:02;;;;;;;18.15;10.65;;;;;;;17.27;73.16;96268.00;5092935;28;20048;-85
2021/06/19 05:31:28;;;;;;;14.15;10.80;;;;;;;17.41;72.45;96277.16;5093698;28;20027;-83
2021/06/19 05:33:54;;;;;;;15.00;11.27;;;;;;;17.49;72.44;96292.63;5092454;28;20024;-83
2021/06/19 05:36:20;;;;;;;17.48;13.32;;;;;;;17.49;72.44;96292.63;5090696;28;20027;-82
2021/06/19 05:38:45;;;;;;;17.33;11.45;;;;;;;17.49;72.44;96292.63;5092485;28;20031;-82
2021/06/19 05:41:11;;;;;;;17.10;12.63;;;;;;;17.75;73.50;96297.78;5093346;28;20066;-83
2021/06/19 05:43:36;;;;;;;28.95;16.98;;;;;;;17.59;75.12;96282.09;5092424;28;20056;-83
2021/06/19 05:46:02;;;;;;;37.50;17.67;;;;;;;17.84;74.81;96298.72;5091892;28;20043;-86
2021/06/19 05:48:28;;;;;;;24.05;14.48;;;;;;;17.92;73.34;96296.94;5092365;28;20081;-83
2021/06/19 05:50:53;;;;;;;37.45;17.70;;;;;;;17.92;73.34;96296.94;5093503;28;20020;-84
2021/06/19 05:53:23;;;;;;;29.63;17.02;;;;;;;17.99;73.98;96283.41;5091323;28;20127;-83
2021/06/19 05:55:49;;;;;;;25.35;14.95;;;;;;;18.16;73.47;96297.03;5092299;28;20024;-84
2021/06/19 05:58:14;;;;;;;33.15;16.45;;;;;;;18.16;73.47;96297.03;5092275;28;20369;-84
2021/06/19 06:00:40;;;;;;;37.53;17.42;;;;;;;18.16;73.47;96297.03;5092262;28;20020;-84
2021/06/19 06:03:06;;;;;;;24.27;15.30;;;;;;;18.16;73.47;96297.03;5090644;28;20039;-83
2021/06/19 06:05:32;;;;;;;27.88;14.80;;;;;;;18.32;71.25;96296.19;5093348;28;20426;-84
2021/06/19 06:08:00;;;;;;;25.90;13.63;;;;;;;18.33;72.13;96280.44;5093399;28;20028;-87
2021/06/19 06:10:27;;;;;;;25.70;14.85;;;;;;;18.54;71.76;96306.28;5091550;28;20081;-85
2021/06/19 06:12:53;;;;;;;23.13;14.30;;;;;;;18.46;70.96;96280.59;5087067;28;20813;-88
2021/06/19 06:15:18;;;;;;;28.08;15.50;;;;;;;18.60;71.00;96281.47;5072084;28;20024;-84
2021/06/19 06:17:44;;;;;;;28.00;15.63;;;;;;;18.93;70.83;96327.22;5075467;28;20079;-84
2021/06/19 06:20:10;;;;;;;30.48;15.48;;;;;;;18.76;70.89;96288.13;5076658;28;20036;-84
2021/06/19 06:22:36;;;;;;;27.67;14.13;;;;;;;19.03;69.82;96314.63;5075332;28;20086;-83
2021/06/19 06:25:02;;;;;;;27.98;14.77;;;;;;;18.69;70.19;96250.91;5084101;28;20033;-82
2021/06/19 06:27:28;;;;;;;29.85;15.32;;;;;;;18.74;70.54;96252.13;5080111;28;20123;-82
2021/06/19 06:29:53;;;;;;;25.90;13.88;;;;;;;19.10;70.53;96286.53;5095195;28;20039;-83
2021/06/19 06:32:19;;;;;;;23.42;13.55;;;;;;;19.18;70.42;96281.22;5096715;28;20024;-83
2021/06/19 06:34:44;;;;;;;22.58;12.38;;;;;;;19.33;70.33;96283.53;5096642;28;20032;-83
2021/06/19 06:37:10;;;;;;;19.98;12.70;;;;;;;19.39;69.72;96292.50;5095994;28;20331;-82
2021/06/19 06:39:35;;;;;;;25.20;13.30;;;;;;;19.11;67.59;96246.75;5095881;28;20023;-83
2021/06/19 06:42:01;;;;;;;23.83;12.50;;;;;;;19.47;68.14;96289.91;5096729;28;20320;-83
2021/06/19 06:44:27;;;;;;;15.82;10.75;;;;;;;19.57;68.61;96289.00;5095379;28;20035;-83
2021/06/19 06:46:53;;;;;;;17.05;11.07;;;;;;;19.64;67.99;96271.19;5093773;28;20020;-83
2021/06/19 06:49:19;;;;;;;14.80;10.32;;;;;;;19.85;67.41;96296.94;5095234;28;20030;-83
2021/06/19 06:51:45;;;;;;;20.77;10.65;;;;;;;19.52;67.42;96225.75;5096339;28;20069;-83
2021/06/19 06:54:10;;;;;;;17.20;10.82;;;;;;;19.89;66.42;96269.09;5096302;28;20028;-83
2021/06/19 06:56:36;;;;;;;13.25;9.95;;;;;;;20.02;65.49;96271.91;5093802;28;20446;-83
2021/06/19 06:59:02;;;;;;;15.40;9.82;;;;;;;20.10;65.97;96270.06;5095173;28;20020;-83
2021/06/19 07:01:28;;;;;;;17.20;9.77;;;;;;;20.14;65.48;96255.97;5096001;28;20036;-83
2021/06/19 07:03:58;;;;;;;15.75;9.93;;;;;;;20.33;65.69;96275.22;5094546;28;20027;-83
2021/06/19 07:06:24;;;;;;;15.30;9.55;;;;;;;20.57;66.28;96291.69;5094981;28;20118;-83
2021/06/19 07:08:50;;;;;;;14.18;9.15;;;;;;;20.29;64.54;96252.72;5094381;28;20081;-83
2021/06/19 07:11:16;;;;;;;14.55;9.07;;;;;;;20.50;64.89;96253.66;5094899;28;20028;-83
2021/06/19 07:13:41;;;;;;;15.43;9.23;;;;;;;20.54;63.17;96240.31;5094361;28;20020;-83
2021/06/19 07:16:07;;;;;;;13.05;8.35;;;;;;;20.60;64.07;96229.19;5096089;28;20069;-83
2021/06/19 07:18:32;;;;;;;13.32;8.60;;;;;;;20.76;64.14;96249.50;5094753;28;20110;-83
2021/06/19 07:20:58;;;;;;;20.98;9.45;;;;;;;20.84;62.94;96244.84;5094623;28;20035;-83
2021/06/19 07:23:25;;;;;;;18.40;9.30;;;;;;;20.86;63.05;96236.75;5093399;28;20331;-83
2021/06/19 07:25:53;;;;;;;14.68;8.60;;;;;;;21.30;63.58;96289.69;5094596;28;20024;-83
2021/06/19 07:28:18;;;;;;;11.68;8.98;;;;;;;21.06;63.73;96213.31;5094073;28;20455;-84
2021/06/19 07:30:44;;;;;;;12.65;9.07;;;;;;;21.47;62.74;96276.31;5094062;28;20016;-83
2021/06/19 07:33:09;;;;;;;11.38;8.15;;;;;;;21.42;62.35;96252.31;5094372;28;20394;-83
2021/06/19 07:35:35;;;;;;;13.98;8.05;;;;;;;21.37;62.61;96231.06;5095104;28;20451;-83
2021/06/19 07:38:00;;;;;;;13.68;8.30;;;;;;;21.35;61.58;96208.75;5094152;28;20493;-83
2021/06/19 07:40:26;;;;;;;16.77;9.02;;;;;;;21.53;61.40;96216.16;5092635;28;20047;-83
2021/06/19 07:42:52;;;;;;;13.75;8.07;;;;;;;21.67;60.88;96247.25;5094257;28;20043;-84
2021/06/19 07:45:18;;;;;;;16.90;8.88;;;;;;;21.53;61.69;96196.09;5095211;28;20408;-83
2021/06/19 07:47:44;;;;;;;18.77;9.30;;;;;;;21.86;61.63;96220.22;5093804;28;20032;-83
2021/06/19 07:50:10;;;;;;;18.17;9.38;;;;;;;22.17;60.38;96245.44;5092886;28;20028;-83
2021/06/19 07:52:36;;;;;;;19.48;9.98;;;;;;;22.16;59.29;96243.97;5094662;28;20369;-83
2021/06/19 07:55:03;;;;;;;22.23;9.43;;;;;;;22.34;60.90;96250.59;5095104;28;20055;-83
2021/06/19 07:57:29;;;;;;;14.77;8.23;;;;;;;22.08;61.05;96190.59;5092450;28;20152;-83
2021/06/19 07:59:55;;;;;;;24.73;8.60;;;;;;;22.16;60.40;96175.59;5095006;28;20362;-83
2021/06/19 08:02:20;;;;;;;14.05;8.63;;;;;;;22.19;59.40;96168.22;5094930;28;20035;-83
2021/06/19 08:04:46;;;;;;;21.90;8.30;;;;;;;22.49;58.96;96200.94;5093547;28;20077;-84
2021/06/19 08:07:12;;;;;;;12.50;7.50;;;;;;;22.43;59.51;96195.53;5093202;28;20028;-83
2021/06/19 08:09:38;;;;;;;14.35;7.22;;;;;;;22.67;59.01;96197.19;5093751;28;20119;-83
2021/06/19 08:12:04;;;;;;;17.50;8.00;;;;;;;22.85;57.49;96208.56;5094932;28;20027;-84
2021/06/19 08:14:29;;;;;;;19.08;7.60;;;;;;;22.90;57.54;96199.38;5093117;28;20100;-83
2021/06/19 08:16:57;;;;;;;15.77;7.90;;;;;;;22.94;58.21;96197.00;5092647;28;20020;-83
2021/06/19 08:19:23;;;;;;;12.10;6.97;;;;;;;22.90;58.96;96171.69;5093513;28;20039;-83
2021/06/19 08:21:50;;;;;;;15.35;6.72;;;;;;;23.43;56.61;96227.38;5093350;28;20016;-83
2021/06/19 08:24:16;;;;;;;14.95;7.13;;;;;;;23.11;56.54;96177.91;5093050;28;20024;-84
2021/06/19 08:26:43;;;;;;;11.35;6.70;;;;;;;23.40;53.95;96194.50;5094733;28;20069;-83
2021/06/19 08:29:08;;;;;;;11.85;6.72;;;;;;;23.45;55.47;96185.28;5093232;28;20044;-84
2021/06/19 08:31:41;;;;;;;10.75;6.35;;;;;;;23.80;55.45;96222.56;5093357;28;20023;-84
2021/06/19 08:34:08;;;;;;;11.05;6.45;;;;;;;23.72;55.02;96191.31;5093242;28;20706;-83
2021/06/19 08:36:34;;;;;;;11.27;6.50;;;;;;;23.79;55.16;96180.22;5093318;28;20316;-83
2021/06/19 08:39:00;;;;;;;11.23;5.75;;;;;;;23.93;54.95;96180.09;5093650;28;20027;-84
2021/06/19 08:41:27;;;;;;;10.82;6.80;;;;;;;24.22;53.67;96209.16;5091464;28;20024;-83
2021/06/19 08:43:53;;;;;;;11.32;6.85;;;;;;;24.16;54.66;96185.66;5093153;28;20020;-84
2021/06/19 08:46:23;;;;;;;7.40;6.38;;;;;;;24.29;54.55;96219.53;5093052;28;20028;-83
2021/06/19 08:48:52;;;;;;;9.65;6.47;;;;;;;24.19;52.91;96174.22;5091621;28;20347;-83
2021/06/19 08:51:19;;;;;;;6.40;5.80;;;;;;;24.15;52.90;96159.97;5093055;28;20061;-84
2021/06/19 08:53:45;;;;;;;6.70;5.93;;;;;;;24.57;52.28;96209.56;5092949;28;20051;-83
2021/06/19 08:56:12;;;;;;;7.65;6.00;;;;;;;24.33;50.79;96157.38;5093005;28;20416;-83
2021/06/19 08:58:38;;;;;;;7.78;5.80;;;;;;;24.63;51.22;96176.09;5092674;28;20078;-83
2021/06/19 09:01:04;;;;;;;8.68;5.93;;;;;;;24.93;50.61;96187.16;5092804;28;20347;-84
2021/06/19 09:03:30;;;;;;;6.15;5.55;;;;;;;24.63;51.15;96142.78;5093934;28;20024;-84
2021/06/19 09:06:17;;;;;;;8.93;5.85;;;;;;;25.05;49.99;96199.34;5092409;28;20030;-83
2021/06/19 09:09:08;;;;;;;8.77;5.35;;;;;;;25.18;48.48;96197.66;5085958;28;20373;-84
2021/06/19 09:11:45;;;;;;;12.95;6.38;;;;;;;25.41;48.36;96203.13;5093865;28;20016;-83
2021/06/19 09:14:19;;;;;;;9.73;6.35;;;;;;;25.19;49.15;96154.69;5092774;28;20438;-84
2021/06/19 09:16:56;;;;;;;8.10;5.97;;;;;;;25.29;47.79;96166.69;5091128;28;20427;-83
2021/06/19 09:19:34;;;;;;;5.53;5.03;;;;;;;25.37;48.11;96164.63;5092715;28;20320;-84
2021/06/19 09:22:23;;;;;;;8.27;5.10;;;;;;;25.88;45.77;96204.44;5091051;28;20093;-84
2021/06/19 09:24:50;;;;;;;5.20;4.70;;;;;;;25.85;46.80;96172.94;5092765;28;20428;-84
2021/06/19 09:27:31;;;;;;;5.85;5.10;;;;;;;26.03;45.62;96201.56;5091639;28;20055;-83
2021/06/19 09:30:06;;;;;;;6.82;4.90;;;;;;;26.22;45.01;96209.44;5092665;28;20540;-84
2021/06/19 09:32:32;;;;;;;6.57;4.32;;;;;;;26.04;43.11;96162.06;5092554;28;20062;-84
2021/06/19 09:35:31;;;;;;;7.30;4.70;;;;;;;26.38;41.79;96203.19;5092104;28;20023;-83
2021/06/19 09:38:01;;;;;;;7.57;4.70;;;;;;;26.54;42.98;96201.06;5081345;28;20036;-83
2021/06/19 09:40:36;;;;;;;7.68;5.00;;;;;;;26.72;42.64;96198.31;5093463;28;20023;-84
2021/06/19 09:43:43;;;;;;;6.45;4.68;;;;;;;26.78;41.57;96180.03;5092469;28;20032;-84
2021/06/19 09:46:10;;;;;;;6.13;4.30;;;;;;;26.86;42.21;96158.44;5054620;28;20021;-84
2021/06/19 09:48:43;;;;;;;7.07;4.43;;;;;;;27.14;39.87;96176.75;5086324;28;20043;-83
2021/06/19 09:51:24;;;;;;;8.05;4.95;;;;;;;27.24;41.04;96174.03;5094552;28;20044;-83
2021/06/19 09:54:03;;;;;;;8.13;4.60;;;;;;;27.13;41.16;96129.94;5096410;28;20092;-84
2021/06/19 09:56:29;;;;;;;8.02;4.88;;;;;;;27.59;42.21;96173.97;5097199;28;20035;-84
2021/06/19 09:58:58;;;;;;;6.75;3.95;;;;;;;27.69;36.38;96169.94;5097546;28;20024;-84
2021/06/19 10:01:35;;;;;;;4.88;3.33;;;;;;;27.81;36.44;96167.41;5097296;28;20036;-84
2021/06/19 10:04:02;;;;;;;5.05;2.80;;;;;;;28.02;35.09;96163.38;5096180;28;20047;-84
2021/06/19 10:06:29;;;;;;;3.95;3.22;;;;;;;27.80;33.59;96115.72;5097272;28;20024;-84
2021/06/19 10:08:56;;;;;;;4.00;3.03;;;;;;;28.27;33.70;96169.50;5097221;28;20404;-84
2021/06/19 10:11:25;;;;;;;4.15;2.80;;;;;;;28.15;33.29;96130.25;5094619;28;20040;-84
2021/06/19 10:13:53;;;;;;;4.00;2.50;;;;;;;28.36;32.36;96134.59;5096003;28;20324;-84
2021/06/19 10:16:18;;;;;;;3.08;2.75;;;;;;;28.52;32.56;96158.16;5095979;28;20119;-84
2021/06/19 10:18:47;;;;;;;3.45;3.00;;;;;;;28.52;33.08;96135.81;5095487;28;20464;-84
2021/06/19 10:21:14;;;;;;;4.20;3.03;;;;;;;28.65;32.07;96140.97;5096952;28;20060;-84
2021/06/19 10:23:40;;;;;;;3.00;2.70;;;;;;;28.61;34.02;96115.56;5096909;28;20047;-84
2021/06/19 10:26:06;;;;;;;4.70;2.92;;;;;;;28.78;34.17;96117.50;5095126;28;20024;-83
2021/06/19 10:28:42;;;;;;;3.60;3.30;;;;;;;28.99;33.79;96136.50;5095992;28;20700;-84
2021/06/19 10:31:08;;;;;;;3.60;3.30;;;;;;;29.28;33.73;96153.25;5096786;28;20297;-84
2021/06/19 10:33:35;;;;;;;3.65;3.30;;;;;;;29.17;32.51;96125.91;5095269;28;20069;-83
2021/06/19 10:36:06;;;;;;;4.45;3.47;;;;;;;29.43;34.68;96130.59;5094557;28;20028;-84
2021/06/19 10:38:49;;;;;;;4.45;3.45;;;;;;;29.59;34.94;96141.47;5089367;28;20024;-84
2021/06/19 10:41:16;;;;;;;7.30;3.60;;;;;;;29.78;35.06;96137.91;5093826;28;20113;-84
2021/06/19 10:43:44;;;;;;;6.05;3.78;;;;;;;29.47;35.01;96097.31;5095462;28;20020;-84
2021/06/19 10:46:31;;;;;;;4.07;3.58;;;;;;;29.89;34.62;96112.84;5095385;28;20545;-84
2021/06/19 10:48:59;;;;;;;4.80;3.70;;;;;;;30.24;34.39;96132.75;5095354;28;20061;-84
2021/06/19 10:51:31;;;;;;;5.40;3.50;;;;;;;30.08;33.70;96089.63;5095271;28;20022;-84
2021/06/19 10:54:19;;;;;;;5.95;2.88;;;;;;;30.50;31.39;96130.97;5094283;28;20028;-84
2021/06/19 10:56:56;;;;;;;4.13;3.35;;;;;;;30.61;33.01;96132.38;5095238;28;20050;-84
2021/06/19 10:59:34;;;;;;;6.95;3.70;;;;;;;30.68;33.57;96128.69;5093438;28;20031;-84
2021/06/19 11:02:03;;;;;;;5.63;3.60;;;;;;;30.64;32.04;96097.59;5094339;28;20028;-84
2021/06/19 11:04:40;;;;;;;4.85;2.85;;;;;;;30.98;32.03;96126.41;5095150;28;20023;-84
2021/06/19 11:07:10;;;;;;;2.90;2.28;;;;;;;31.18;30.34;96124.94;5095027;28;20048;-84
2021/06/19 11:09:38;;;;;;;3.95;2.70;;;;;;;31.29;30.41;96115.13;5096436;28;20027;-84
2021/06/19 11:12:06;;;;;;;3.55;2.92;;;;;;;31.24;30.81;96080.44;5095920;28;20077;-84
2021/06/19 11:14:41;;;;;;;4.38;2.90;;;;;;;31.67;29.41;96119.59;5094037;28;20110;-84
2021/06/19 11:17:08;;;;;;;2.85;2.53;;;;;;;31.74;29.93;96112.28;5094889;28;20133;-84
2021/06/19 11:19:36;;;;;;;4.22;2.58;;;;;;;31.68;28.99;96100.69;5094485;28;20020;-83
2021/06/19 11:22:30;;;;;;;3.03;2.30;;;;;;;31.90;28.87;96104.16;5095029;28;20052;-84
2021/06/19 11:25:28;;;;;;;3.00;2.30;;;;;;;31.74;28.08;96089.84;5094267;28;20478;-83
2021/06/19 11:28:00;;;;;;;4.15;2.60;;;;;;;32.01;27.91;96104.19;5095859;28;20052;-84
2021/06/19 11:30:38;;;;;;;4.28;2.63;;;;;;;32.15;27.91;96106.38;5092959;28;20024;-84